sensor_id;sensor_type;location;lat;lon;timestamp;P1;durP1;ratioP1;P2;durP2;ratioP2
3865;SDS011;1948;53.250;10.412;2022-09-12T00:01:27;5.30;;;5.00;;
3865;SDS011;1948;53.250;10.412;2022-09-12T00:03:59;5.20;;;4.73;;
3865;SDS011;1948;53.250;10.412;2022-09-12T00:06:31;5.10;;;4.60;;
3865;SDS011;1948;53.250;10.412;2022-09-12T00:09:02;4.70;;;4.40;;
3865;SDS011;1948;53.250;10.412;2022-09-12T00:11:34;4.30;;;4.13;;
3865;SDS011;1948;53.250;10.412;2022-09-12T00:14:03;6.27;;;4.93;;
3865;SDS011;1948;53.250;10.412;2022-09-12T00:16:37;6.87;;;6.37;;
3865;SDS011;1948;53.250;10.412;2022-09-12T00:19:05;6.90;;;5.13;;
3865;SDS011;1948;53.250;10.412;2022-09-12T00:25:43;13.77;;;5.50;;
3865;SDS011;1948;53.250;10.412;2022-09-12T00:28:12;6.13;;;5.70;;
3865;SDS011;1948;53.250;10.412;2022-09-12T00:30:44;7.63;;;5.00;;
3865;SDS011;1948;53.250;10.412;2022-09-12T00:33:17;5.67;;;5.33;;
3865;SDS011;1948;53.250;10.412;2022-09-12T00:35:45;4.50;;;4.40;;
3865;SDS011;1948;53.250;10.412;2022-09-12T00:38:16;4.60;;;4.40;;
3865;SDS011;1948;53.250;10.412;2022-09-12T00:40:43;4.20;;;4.10;;
3865;SDS011;1948;53.250;10.412;2022-09-12T00:43:13;6.53;;;4.43;;
3865;SDS011;1948;53.250;10.412;2022-09-12T00:48:55;7.30;;;3.97;;
3865;SDS011;1948;53.250;10.412;2022-09-12T00:54:47;4.43;;;4.23;;
3865;SDS011;1948;53.250;10.412;2022-09-12T00:57:29;4.87;;;4.33;;
3865;SDS011;1948;53.250;10.412;2022-09-12T01:00:09;11.73;;;4.40;;
3865;SDS011;1948;53.250;10.412;2022-09-12T01:02:51;5.77;;;4.50;;
3865;SDS011;1948;53.250;10.412;2022-09-12T01:05:22;7.10;;;4.93;;
3865;SDS011;1948;53.250;10.412;2022-09-12T01:07:51;4.73;;;4.60;;
3865;SDS011;1948;53.250;10.412;2022-09-12T01:13:15;4.60;;;4.40;;
3865;SDS011;1948;53.250;10.412;2022-09-12T01:15:42;8.77;;;4.30;;
3865;SDS011;1948;53.250;10.412;2022-09-12T01:18:19;4.87;;;4.43;;
3865;SDS011;1948;53.250;10.412;2022-09-12T01:21:43;4.50;;;4.40;;
3865;SDS011;1948;53.250;10.412;2022-09-12T01:24:53;3.90;;;3.70;;
3865;SDS011;1948;53.250;10.412;2022-09-12T01:31:00;4.10;;;3.80;;
3865;SDS011;1948;53.250;10.412;2022-09-12T01:33:46;4.10;;;4.00;;
3865;SDS011;1948;53.250;10.412;2022-09-12T01:36:47;3.90;;;3.70;;
3865;SDS011;1948;53.250;10.412;2022-09-12T01:39:28;4.33;;;4.13;;
3865;SDS011;1948;53.250;10.412;2022-09-12T01:42:28;6.30;;;4.17;;
3865;SDS011;1948;53.250;10.412;2022-09-12T01:45:08;7.57;;;4.23;;
3865;SDS011;1948;53.250;10.412;2022-09-12T01:50:58;3.90;;;3.80;;
3865;SDS011;1948;53.250;10.412;2022-09-12T01:53:42;7.83;;;4.07;;
3865;SDS011;1948;53.250;10.412;2022-09-12T01:56:21;3.90;;;3.80;;
3865;SDS011;1948;53.250;10.412;2022-09-12T01:58:53;5.27;;;4.40;;
3865;SDS011;1948;53.250;10.412;2022-09-12T02:01:32;3.83;;;3.73;;
3865;SDS011;1948;53.250;10.412;2022-09-12T02:06:52;5.60;;;4.00;;
3865;SDS011;1948;53.250;10.412;2022-09-12T02:09:26;3.77;;;3.57;;
3865;SDS011;1948;53.250;10.412;2022-09-12T02:12:05;5.07;;;4.70;;
3865;SDS011;1948;53.250;10.412;2022-09-12T02:14:37;11.60;;;3.93;;
3865;SDS011;1948;53.250;10.412;2022-09-12T02:17:24;4.07;;;3.70;;
3865;SDS011;1948;53.250;10.412;2022-09-12T02:19:54;4.00;;;3.77;;
3865;SDS011;1948;53.250;10.412;2022-09-12T02:22:30;4.17;;;3.93;;
3865;SDS011;1948;53.250;10.412;2022-09-12T02:25:01;4.30;;;3.40;;
3865;SDS011;1948;53.250;10.412;2022-09-12T02:27:44;3.67;;;3.33;;
3865;SDS011;1948;53.250;10.412;2022-09-12T02:30:15;3.80;;;3.67;;
3865;SDS011;1948;53.250;10.412;2022-09-12T02:35:50;3.80;;;3.70;;
3865;SDS011;1948;53.250;10.412;2022-09-12T02:38:32;3.90;;;3.63;;
3865;SDS011;1948;53.250;10.412;2022-09-12T02:41:08;8.93;;;3.60;;
3865;SDS011;1948;53.250;10.412;2022-09-12T02:43:43;3.83;;;3.73;;
3865;SDS011;1948;53.250;10.412;2022-09-12T02:46:14;4.10;;;3.83;;
3865;SDS011;1948;53.250;10.412;2022-09-12T02:48:52;4.60;;;3.70;;
3865;SDS011;1948;53.250;10.412;2022-09-12T02:51:19;3.53;;;3.43;;
3865;SDS011;1948;53.250;10.412;2022-09-12T02:53:49;3.70;;;3.60;;
3865;SDS011;1948;53.250;10.412;2022-09-12T02:56:20;3.80;;;3.50;;
3865;SDS011;1948;53.250;10.412;2022-09-12T02:58:58;3.50;;;3.33;;
3865;SDS011;1948;53.250;10.412;2022-09-12T03:01:41;3.67;;;3.37;;
3865;SDS011;1948;53.250;10.412;2022-09-12T03:16:52;4.90;;;3.77;;
3865;SDS011;1948;53.250;10.412;2022-09-12T03:22:56;3.80;;;3.70;;
3865;SDS011;1948;53.250;10.412;2022-09-12T03:25:31;3.93;;;3.77;;
3865;SDS011;1948;53.250;10.412;2022-09-12T03:28:07;4.10;;;4.00;;
3865;SDS011;1948;53.250;10.412;2022-09-12T03:30:42;4.10;;;3.33;;
3865;SDS011;1948;53.250;10.412;2022-09-12T03:33:15;7.70;;;3.47;;
3865;SDS011;1948;53.250;10.412;2022-09-12T03:35:45;3.70;;;3.60;;
3865;SDS011;1948;53.250;10.412;2022-09-12T03:38:13;3.50;;;3.50;;
3865;SDS011;1948;53.250;10.412;2022-09-12T03:40:41;4.20;;;3.90;;
3865;SDS011;1948;53.250;10.412;2022-09-12T03:43:14;4.03;;;3.93;;
3865;SDS011;1948;53.250;10.412;2022-09-12T03:45:41;3.90;;;3.80;;
3865;SDS011;1948;53.250;10.412;2022-09-12T03:48:10;4.00;;;3.93;;
3865;SDS011;1948;53.250;10.412;2022-09-12T03:50:37;3.60;;;3.60;;
3865;SDS011;1948;53.250;10.412;2022-09-12T03:53:08;4.63;;;4.53;;
3865;SDS011;1948;53.250;10.412;2022-09-12T03:55:42;5.00;;;4.90;;
3865;SDS011;1948;53.250;10.412;2022-09-12T03:58:09;4.57;;;4.20;;
3865;SDS011;1948;53.250;10.412;2022-09-12T04:00:37;4.70;;;4.33;;
3865;SDS011;1948;53.250;10.412;2022-09-12T04:03:05;4.40;;;4.30;;
3865;SDS011;1948;53.250;10.412;2022-09-12T04:05:34;17.33;;;5.40;;
3865;SDS011;1948;53.250;10.412;2022-09-12T04:08:04;4.63;;;4.50;;
3865;SDS011;1948;53.250;10.412;2022-09-12T04:10:33;9.17;;;4.63;;
3865;SDS011;1948;53.250;10.412;2022-09-12T04:13:00;4.20;;;4.20;;
3865;SDS011;1948;53.250;10.412;2022-09-12T04:15:27;6.63;;;4.97;;
3865;SDS011;1948;53.250;10.412;2022-09-12T04:17:54;4.33;;;4.23;;
3865;SDS011;1948;53.250;10.412;2022-09-12T04:20:28;4.03;;;3.97;;
3865;SDS011;1948;53.250;10.412;2022-09-12T04:22:55;4.50;;;4.37;;
3865;SDS011;1948;53.250;10.412;2022-09-12T04:25:22;4.17;;;3.90;;
3865;SDS011;1948;53.250;10.412;2022-09-12T04:27:53;3.77;;;3.67;;
3865;SDS011;1948;53.250;10.412;2022-09-12T04:30:20;4.17;;;4.07;;
3865;SDS011;1948;53.250;10.412;2022-09-12T04:32:47;5.90;;;4.23;;
3865;SDS011;1948;53.250;10.412;2022-09-12T04:35:14;4.13;;;4.10;;
3865;SDS011;1948;53.250;10.412;2022-09-12T04:37:41;5.00;;;4.57;;
3865;SDS011;1948;53.250;10.412;2022-09-12T04:40:08;3.47;;;3.37;;
3865;SDS011;1948;53.250;10.412;2022-09-12T04:42:38;3.80;;;3.60;;
3865;SDS011;1948;53.250;10.412;2022-09-12T04:45:05;4.60;;;3.70;;
3865;SDS011;1948;53.250;10.412;2022-09-12T04:47:35;7.23;;;4.73;;
3865;SDS011;1948;53.250;10.412;2022-09-12T04:50:02;8.17;;;4.40;;
3865;SDS011;1948;53.250;10.412;2022-09-12T04:52:30;8.87;;;4.60;;
3865;SDS011;1948;53.250;10.412;2022-09-12T04:54:57;4.93;;;4.60;;
3865;SDS011;1948;53.250;10.412;2022-09-12T04:57:24;11.30;;;5.67;;
3865;SDS011;1948;53.250;10.412;2022-09-12T04:59:54;4.73;;;4.40;;
3865;SDS011;1948;53.250;10.412;2022-09-12T05:02:21;7.00;;;4.97;;
3865;SDS011;1948;53.250;10.412;2022-09-12T05:04:48;5.00;;;4.80;;
3865;SDS011;1948;53.250;10.412;2022-09-12T05:07:15;4.60;;;4.40;;
3865;SDS011;1948;53.250;10.412;2022-09-12T05:09:42;4.60;;;4.33;;
3865;SDS011;1948;53.250;10.412;2022-09-12T05:12:09;5.40;;;4.90;;
3865;SDS011;1948;53.250;10.412;2022-09-12T05:14:36;6.63;;;5.20;;
3865;SDS011;1948;53.250;10.412;2022-09-12T05:17:10;8.80;;;4.40;;
3865;SDS011;1948;53.250;10.412;2022-09-12T05:19:37;5.87;;;5.10;;
3865;SDS011;1948;53.250;10.412;2022-09-12T05:22:16;8.77;;;4.83;;
3865;SDS011;1948;53.250;10.412;2022-09-12T05:24:42;9.30;;;4.33;;
3865;SDS011;1948;53.250;10.412;2022-09-12T05:27:15;4.83;;;4.53;;
3865;SDS011;1948;53.250;10.412;2022-09-12T05:29:43;14.37;;;5.37;;
3865;SDS011;1948;53.250;10.412;2022-09-12T05:32:12;5.43;;;5.03;;
3865;SDS011;1948;53.250;10.412;2022-09-12T05:34:41;5.00;;;4.60;;
3865;SDS011;1948;53.250;10.412;2022-09-12T05:37:08;4.07;;;4.03;;
3865;SDS011;1948;53.250;10.412;2022-09-12T05:39:35;5.97;;;4.50;;
3865;SDS011;1948;53.250;10.412;2022-09-12T05:42:02;14.60;;;4.60;;
3865;SDS011;1948;53.250;10.412;2022-09-12T05:44:30;10.80;;;4.70;;
3865;SDS011;1948;53.250;10.412;2022-09-12T05:46:59;5.70;;;5.30;;
3865;SDS011;1948;53.250;10.412;2022-09-12T05:49:26;4.80;;;4.70;;
3865;SDS011;1948;53.250;10.412;2022-09-12T05:51:53;12.43;;;4.63;;
3865;SDS011;1948;53.250;10.412;2022-09-12T05:54:22;4.97;;;4.60;;
3865;SDS011;1948;53.250;10.412;2022-09-12T05:56:56;5.77;;;4.80;;
3865;SDS011;1948;53.250;10.412;2022-09-12T05:59:23;5.37;;;5.17;;
3865;SDS011;1948;53.250;10.412;2022-09-12T06:01:50;6.13;;;5.70;;
3865;SDS011;1948;53.250;10.412;2022-09-12T06:04:17;5.00;;;4.90;;
3865;SDS011;1948;53.250;10.412;2022-09-12T06:06:49;5.20;;;5.00;;
3865;SDS011;1948;53.250;10.412;2022-09-12T06:09:18;5.17;;;4.87;;
3865;SDS011;1948;53.250;10.412;2022-09-12T06:11:45;16.73;;;4.80;;
3865;SDS011;1948;53.250;10.412;2022-09-12T06:14:15;5.50;;;5.20;;
3865;SDS011;1948;53.250;10.412;2022-09-12T06:16:45;9.83;;;5.40;;
3865;SDS011;1948;53.250;10.412;2022-09-12T06:19:15;9.27;;;5.00;;
3865;SDS011;1948;53.250;10.412;2022-09-12T06:21:44;7.57;;;5.03;;
3865;SDS011;1948;53.250;10.412;2022-09-12T06:24:15;16.00;;;5.03;;
3865;SDS011;1948;53.250;10.412;2022-09-12T06:26:46;11.63;;;6.30;;
3865;SDS011;1948;53.250;10.412;2022-09-12T06:29:18;7.30;;;5.27;;
3865;SDS011;1948;53.250;10.412;2022-09-12T06:31:47;5.33;;;4.97;;
3865;SDS011;1948;53.250;10.412;2022-09-12T06:34:14;5.20;;;5.10;;
3865;SDS011;1948;53.250;10.412;2022-09-12T06:36:44;5.13;;;4.93;;
3865;SDS011;1948;53.250;10.412;2022-09-12T06:39:19;7.20;;;5.20;;
3865;SDS011;1948;53.250;10.412;2022-09-12T06:41:50;4.30;;;4.20;;
3865;SDS011;1948;53.250;10.412;2022-09-12T06:44:19;5.17;;;4.93;;
3865;SDS011;1948;53.250;10.412;2022-09-12T06:46:48;4.87;;;4.67;;
3865;SDS011;1948;53.250;10.412;2022-09-12T06:49:15;4.10;;;4.00;;
3865;SDS011;1948;53.250;10.412;2022-09-12T06:51:42;10.63;;;5.10;;
3865;SDS011;1948;53.250;10.412;2022-09-12T06:54:13;7.40;;;4.40;;
3865;SDS011;1948;53.250;10.412;2022-09-12T06:56:44;5.80;;;4.67;;
3865;SDS011;1948;53.250;10.412;2022-09-12T06:59:11;4.40;;;4.10;;
3865;SDS011;1948;53.250;10.412;2022-09-12T07:01:44;4.37;;;4.13;;
3865;SDS011;1948;53.250;10.412;2022-09-12T07:04:16;4.67;;;4.20;;
3865;SDS011;1948;53.250;10.412;2022-09-12T07:06:43;9.10;;;4.30;;
3865;SDS011;1948;53.250;10.412;2022-09-12T07:09:11;3.97;;;3.77;;
3865;SDS011;1948;53.250;10.412;2022-09-12T07:11:42;9.43;;;4.67;;
3865;SDS011;1948;53.250;10.412;2022-09-12T07:14:12;10.80;;;5.20;;
3865;SDS011;1948;53.250;10.412;2022-09-12T07:16:43;4.43;;;4.13;;
3865;SDS011;1948;53.250;10.412;2022-09-12T07:19:14;6.40;;;4.70;;
3865;SDS011;1948;53.250;10.412;2022-09-12T07:21:41;4.27;;;4.00;;
3865;SDS011;1948;53.250;10.412;2022-09-12T07:24:11;7.40;;;4.63;;
3865;SDS011;1948;53.250;10.412;2022-09-12T07:26:38;5.60;;;4.90;;
3865;SDS011;1948;53.250;10.412;2022-09-12T07:29:07;4.73;;;4.50;;
3865;SDS011;1948;53.250;10.412;2022-09-12T07:32:02;4.00;;;3.90;;
3865;SDS011;1948;53.250;10.412;2022-09-12T07:34:31;4.30;;;4.10;;
3865;SDS011;1948;53.250;10.412;2022-09-12T07:37:00;3.80;;;3.70;;
3865;SDS011;1948;53.250;10.412;2022-09-12T07:39:27;4.03;;;3.83;;
3865;SDS011;1948;53.250;10.412;2022-09-12T07:41:56;4.80;;;4.30;;
3865;SDS011;1948;53.250;10.412;2022-09-12T07:44:23;4.17;;;4.07;;
3865;SDS011;1948;53.250;10.412;2022-09-12T07:46:53;7.33;;;4.30;;
3865;SDS011;1948;53.250;10.412;2022-09-12T07:49:22;4.17;;;3.97;;
3865;SDS011;1948;53.250;10.412;2022-09-12T07:51:59;6.03;;;4.30;;
3865;SDS011;1948;53.250;10.412;2022-09-12T07:54:26;4.37;;;4.17;;
3865;SDS011;1948;53.250;10.412;2022-09-12T07:56:57;3.70;;;3.60;;
3865;SDS011;1948;53.250;10.412;2022-09-12T07:59:24;3.83;;;3.73;;
3865;SDS011;1948;53.250;10.412;2022-09-12T08:02:12;4.00;;;3.80;;
3865;SDS011;1948;53.250;10.412;2022-09-12T08:04:45;4.20;;;3.90;;
3865;SDS011;1948;53.250;10.412;2022-09-12T08:07:15;4.37;;;4.10;;
3865;SDS011;1948;53.250;10.412;2022-09-12T08:09:44;4.10;;;4.00;;
3865;SDS011;1948;53.250;10.412;2022-09-12T08:12:11;5.20;;;3.83;;
3865;SDS011;1948;53.250;10.412;2022-09-12T08:14:41;3.40;;;3.40;;
3865;SDS011;1948;53.250;10.412;2022-09-12T08:17:08;4.00;;;3.70;;
3865;SDS011;1948;53.250;10.412;2022-09-12T08:19:35;3.00;;;2.90;;
3865;SDS011;1948;53.250;10.412;2022-09-12T08:22:05;3.30;;;3.10;;
3865;SDS011;1948;53.250;10.412;2022-09-12T08:24:33;3.70;;;3.60;;
3865;SDS011;1948;53.250;10.412;2022-09-12T08:27:02;3.40;;;3.40;;
3865;SDS011;1948;53.250;10.412;2022-09-12T08:29:29;2.90;;;2.80;;
3865;SDS011;1948;53.250;10.412;2022-09-12T08:31:56;2.43;;;2.33;;
3865;SDS011;1948;53.250;10.412;2022-09-12T08:34:25;3.20;;;3.10;;
3865;SDS011;1948;53.250;10.412;2022-09-12T08:36:52;4.43;;;2.80;;
3865;SDS011;1948;53.250;10.412;2022-09-12T08:39:22;2.67;;;2.57;;
3865;SDS011;1948;53.250;10.412;2022-09-12T08:42:03;2.50;;;2.40;;
3865;SDS011;1948;53.250;10.412;2022-09-12T08:47:31;3.00;;;2.47;;
3865;SDS011;1948;53.250;10.412;2022-09-12T08:55:30;2.40;;;2.40;;
3865;SDS011;1948;53.250;10.412;2022-09-12T08:58:20;2.80;;;2.60;;
3865;SDS011;1948;53.250;10.412;2022-09-12T09:13:27;2.40;;;2.40;;
3865;SDS011;1948;53.250;10.412;2022-09-12T09:17:15;2.30;;;2.10;;
3865;SDS011;1948;53.250;10.412;2022-09-12T09:20:21;2.00;;;2.00;;
3865;SDS011;1948;53.250;10.412;2022-09-12T09:23:22;2.00;;;2.00;;
3865;SDS011;1948;53.250;10.412;2022-09-12T09:26:39;1.90;;;1.90;;
3865;SDS011;1948;53.250;10.412;2022-09-12T09:28:59;5.20;;;2.00;;
3865;SDS011;1948;53.250;10.412;2022-09-12T09:31:36;1.80;;;1.73;;
3865;SDS011;1948;53.250;10.412;2022-09-12T09:34:20;1.97;;;1.97;;
3865;SDS011;1948;53.250;10.412;2022-09-12T09:45:12;1.97;;;1.90;;
3865;SDS011;1948;53.250;10.412;2022-09-12T09:47:53;1.50;;;1.40;;
3865;SDS011;1948;53.250;10.412;2022-09-12T09:50:46;3.40;;;2.00;;
3865;SDS011;1948;53.250;10.412;2022-09-12T09:56:20;2.00;;;1.90;;
3865;SDS011;1948;53.250;10.412;2022-09-12T10:04:21;1.77;;;1.67;;
3865;SDS011;1948;53.250;10.412;2022-09-12T10:06:52;1.57;;;1.57;;
3865;SDS011;1948;53.250;10.412;2022-09-12T10:09:24;3.97;;;1.60;;
3865;SDS011;1948;53.250;10.412;2022-09-12T10:11:58;5.40;;;1.63;;
3865;SDS011;1948;53.250;10.412;2022-09-12T10:14:32;1.30;;;1.17;;
3865;SDS011;1948;53.250;10.412;2022-09-12T10:25:47;1.30;;;1.20;;
3865;SDS011;1948;53.250;10.412;2022-09-12T10:28:35;2.17;;;1.40;;
3865;SDS011;1948;53.250;10.412;2022-09-12T10:31:26;4.03;;;1.60;;
3865;SDS011;1948;53.250;10.412;2022-09-12T10:37:05;1.17;;;1.17;;
3865;SDS011;1948;53.250;10.412;2022-09-12T10:39:36;1.40;;;1.40;;
3865;SDS011;1948;53.250;10.412;2022-09-12T10:42:04;1.10;;;1.10;;
3865;SDS011;1948;53.250;10.412;2022-09-12T10:44:32;1.50;;;1.40;;
3865;SDS011;1948;53.250;10.412;2022-09-12T10:47:23;3.07;;;1.63;;
3865;SDS011;1948;53.250;10.412;2022-09-12T10:49:50;1.50;;;1.10;;
3865;SDS011;1948;53.250;10.412;2022-09-12T10:52:20;2.70;;;1.10;;
3865;SDS011;1948;53.250;10.412;2022-09-12T10:54:53;1.07;;;1.07;;
3865;SDS011;1948;53.250;10.412;2022-09-12T11:05:50;1.00;;;1.00;;
3865;SDS011;1948;53.250;10.412;2022-09-12T11:11:39;1.10;;;1.10;;
3865;SDS011;1948;53.250;10.412;2022-09-12T11:18:18;3.53;;;1.33;;
3865;SDS011;1948;53.250;10.412;2022-09-12T11:26:46;1.00;;;1.00;;
3865;SDS011;1948;53.250;10.412;2022-09-12T11:29:44;1.10;;;1.10;;
3865;SDS011;1948;53.250;10.412;2022-09-12T11:41:08;1.23;;;1.23;;
3865;SDS011;1948;53.250;10.412;2022-09-12T11:44:10;1.30;;;1.20;;
3865;SDS011;1948;53.250;10.412;2022-09-12T11:46:53;1.07;;;1.07;;
3865;SDS011;1948;53.250;10.412;2022-09-12T11:49:35;2.10;;;1.00;;
3865;SDS011;1948;53.250;10.412;2022-09-12T11:55:06;1.70;;;1.07;;
3865;SDS011;1948;53.250;10.412;2022-09-12T11:57:43;1.10;;;1.10;;
3865;SDS011;1948;53.250;10.412;2022-09-12T12:08:28;1.10;;;1.10;;
3865;SDS011;1948;53.250;10.412;2022-09-12T12:10:58;1.37;;;1.10;;
3865;SDS011;1948;53.250;10.412;2022-09-12T12:13:31;1.30;;;1.30;;
3865;SDS011;1948;53.250;10.412;2022-09-12T12:19:07;1.23;;;1.23;;
3865;SDS011;1948;53.250;10.412;2022-09-12T12:21:47;1.30;;;1.30;;
3865;SDS011;1948;53.250;10.412;2022-09-12T12:24:23;1.67;;;1.50;;
3865;SDS011;1948;53.250;10.412;2022-09-12T12:29:50;1.40;;;1.40;;
3865;SDS011;1948;53.250;10.412;2022-09-12T12:32:18;1.57;;;1.57;;
3865;SDS011;1948;53.250;10.412;2022-09-12T12:34:46;1.40;;;1.40;;
3865;SDS011;1948;53.250;10.412;2022-09-12T12:47:32;1.90;;;1.80;;
3865;SDS011;1948;53.250;10.412;2022-09-12T12:52:54;1.73;;;1.73;;
3865;SDS011;1948;53.250;10.412;2022-09-12T12:55:31;1.87;;;1.87;;
3865;SDS011;1948;53.250;10.412;2022-09-12T12:58:28;2.20;;;1.80;;
3865;SDS011;1948;53.250;10.412;2022-09-12T13:03:35;2.73;;;1.53;;
3865;SDS011;1948;53.250;10.412;2022-09-12T13:06:35;8.83;;;1.80;;
3865;SDS011;1948;53.250;10.412;2022-09-12T13:09:36;1.83;;;1.80;;
3865;SDS011;1948;53.250;10.412;2022-09-12T13:12:11;1.60;;;1.60;;
3865;SDS011;1948;53.250;10.412;2022-09-12T13:14:53;1.80;;;1.73;;
3865;SDS011;1948;53.250;10.412;2022-09-12T13:17:24;1.67;;;1.50;;
3865;SDS011;1948;53.250;10.412;2022-09-12T13:22:54;7.13;;;2.10;;
3865;SDS011;1948;53.250;10.412;2022-09-12T13:30:41;1.20;;;1.20;;
3865;SDS011;1948;53.250;10.412;2022-09-12T13:44:55;1.27;;;1.27;;
3865;SDS011;1948;53.250;10.412;2022-09-12T13:47:29;1.53;;;1.40;;
3865;SDS011;1948;53.250;10.412;2022-09-12T13:50:15;1.10;;;1.10;;
3865;SDS011;1948;53.250;10.412;2022-09-12T13:52:52;1.40;;;1.40;;
3865;SDS011;1948;53.250;10.412;2022-09-12T13:55:28;1.30;;;1.30;;
3865;SDS011;1948;53.250;10.412;2022-09-12T13:58:06;1.60;;;1.50;;
3865;SDS011;1948;53.250;10.412;2022-09-12T14:01:13;4.30;;;1.70;;
3865;SDS011;1948;53.250;10.412;2022-09-12T14:03:46;4.00;;;1.67;;
3865;SDS011;1948;53.250;10.412;2022-09-12T14:06:42;1.70;;;1.70;;
3865;SDS011;1948;53.250;10.412;2022-09-12T14:09:22;2.57;;;1.50;;
3865;SDS011;1948;53.250;10.412;2022-09-12T14:11:54;1.80;;;1.80;;
3865;SDS011;1948;53.250;10.412;2022-09-12T14:19:54;1.57;;;1.40;;
3865;SDS011;1948;53.250;10.412;2022-09-12T14:22:27;1.30;;;1.30;;
3865;SDS011;1948;53.250;10.412;2022-09-12T14:24:55;1.30;;;1.30;;
3865;SDS011;1948;53.250;10.412;2022-09-12T14:27:27;1.57;;;1.47;;
3865;SDS011;1948;53.250;10.412;2022-09-12T14:30:06;1.40;;;1.40;;
3865;SDS011;1948;53.250;10.412;2022-09-12T14:35:51;2.23;;;2.03;;
3865;SDS011;1948;53.250;10.412;2022-09-12T14:38:34;3.70;;;1.83;;
3865;SDS011;1948;53.250;10.412;2022-09-12T14:41:12;1.70;;;1.60;;
3865;SDS011;1948;53.250;10.412;2022-09-12T14:43:49;9.83;;;2.00;;
3865;SDS011;1948;53.250;10.412;2022-09-12T14:46:26;4.60;;;1.77;;
3865;SDS011;1948;53.250;10.412;2022-09-12T14:49:06;2.00;;;2.00;;
3865;SDS011;1948;53.250;10.412;2022-09-12T14:51:54;1.90;;;1.90;;
3865;SDS011;1948;53.250;10.412;2022-09-12T14:57:05;1.67;;;1.67;;
3865;SDS011;1948;53.250;10.412;2022-09-12T15:02:46;2.40;;;2.10;;
3865;SDS011;1948;53.250;10.412;2022-09-12T15:05:17;1.77;;;1.67;;
3865;SDS011;1948;53.250;10.412;2022-09-12T15:10:26;1.73;;;1.63;;
3865;SDS011;1948;53.250;10.412;2022-09-12T15:15:36;2.10;;;2.00;;
3865;SDS011;1948;53.250;10.412;2022-09-12T15:18:05;8.13;;;2.20;;
3865;SDS011;1948;53.250;10.412;2022-09-12T15:20:33;6.00;;;2.07;;
3865;SDS011;1948;53.250;10.412;2022-09-12T15:23:04;3.03;;;2.70;;
3865;SDS011;1948;53.250;10.412;2022-09-12T15:25:36;2.70;;;2.60;;
3865;SDS011;1948;53.250;10.412;2022-09-12T15:28:14;2.00;;;2.00;;
3865;SDS011;1948;53.250;10.412;2022-09-12T15:30:49;2.50;;;2.50;;
3865;SDS011;1948;53.250;10.412;2022-09-12T15:33:21;2.80;;;2.63;;
3865;SDS011;1948;53.250;10.412;2022-09-12T15:35:55;6.13;;;3.00;;
3865;SDS011;1948;53.250;10.412;2022-09-12T15:38:22;4.40;;;2.60;;
3865;SDS011;1948;53.250;10.412;2022-09-12T15:40:52;3.73;;;3.50;;
3865;SDS011;1948;53.250;10.412;2022-09-12T15:43:21;3.47;;;3.17;;
3865;SDS011;1948;53.250;10.412;2022-09-12T15:45:49;9.67;;;3.23;;
3865;SDS011;1948;53.250;10.412;2022-09-12T15:48:17;3.10;;;2.87;;
3865;SDS011;1948;53.250;10.412;2022-09-12T15:50:49;3.37;;;3.27;;
3865;SDS011;1948;53.250;10.412;2022-09-12T15:53:16;3.60;;;3.50;;
3865;SDS011;1948;53.250;10.412;2022-09-12T15:55:45;4.10;;;3.80;;
3865;SDS011;1948;53.250;10.412;2022-09-12T15:58:12;4.20;;;3.40;;
3865;SDS011;1948;53.250;10.412;2022-09-12T16:00:41;3.50;;;3.40;;
3865;SDS011;1948;53.250;10.412;2022-09-12T16:03:19;4.00;;;3.80;;
3865;SDS011;1948;53.250;10.412;2022-09-12T16:05:58;4.97;;;3.80;;
3865;SDS011;1948;53.250;10.412;2022-09-12T16:08:28;3.40;;;3.20;;
3865;SDS011;1948;53.250;10.412;2022-09-12T16:10:57;4.20;;;4.00;;
3865;SDS011;1948;53.250;10.412;2022-09-12T16:13:28;3.10;;;3.00;;
3865;SDS011;1948;53.250;10.412;2022-09-12T16:15:58;3.43;;;3.23;;
3865;SDS011;1948;53.250;10.412;2022-09-12T16:18:33;3.70;;;3.60;;
3865;SDS011;1948;53.250;10.412;2022-09-12T16:21:02;5.00;;;3.83;;
3865;SDS011;1948;53.250;10.412;2022-09-12T16:23:40;7.03;;;4.00;;
3865;SDS011;1948;53.250;10.412;2022-09-12T16:26:11;9.30;;;3.70;;
3865;SDS011;1948;53.250;10.412;2022-09-12T16:28:39;4.53;;;4.30;;
3865;SDS011;1948;53.250;10.412;2022-09-12T16:31:12;3.67;;;3.57;;
3865;SDS011;1948;53.250;10.412;2022-09-12T16:33:39;3.50;;;3.43;;
3865;SDS011;1948;53.250;10.412;2022-09-12T16:36:07;3.73;;;3.73;;
3865;SDS011;1948;53.250;10.412;2022-09-12T16:38:40;3.70;;;3.40;;
3865;SDS011;1948;53.250;10.412;2022-09-12T16:41:14;4.20;;;3.83;;
3865;SDS011;1948;53.250;10.412;2022-09-12T16:43:46;4.03;;;3.80;;
3865;SDS011;1948;53.250;10.412;2022-09-12T16:46:14;3.33;;;3.23;;
3865;SDS011;1948;53.250;10.412;2022-09-12T16:48:45;3.60;;;3.50;;
3865;SDS011;1948;53.250;10.412;2022-09-12T16:51:18;3.90;;;3.70;;
3865;SDS011;1948;53.250;10.412;2022-09-12T16:53:49;3.57;;;3.30;;
3865;SDS011;1948;53.250;10.412;2022-09-12T16:56:16;5.27;;;3.53;;
3865;SDS011;1948;53.250;10.412;2022-09-12T16:58:44;3.73;;;3.50;;
3865;SDS011;1948;53.250;10.412;2022-09-12T17:01:15;4.40;;;3.20;;
3865;SDS011;1948;53.250;10.412;2022-09-12T17:03:55;4.93;;;3.70;;
3865;SDS011;1948;53.250;10.412;2022-09-12T17:06:25;4.20;;;4.00;;
3865;SDS011;1948;53.250;10.412;2022-09-12T17:08:57;3.50;;;3.40;;
3865;SDS011;1948;53.250;10.412;2022-09-12T17:11:28;4.37;;;4.13;;
3865;SDS011;1948;53.250;10.412;2022-09-12T17:14:02;4.67;;;4.47;;
3865;SDS011;1948;53.250;10.412;2022-09-12T17:16:37;4.37;;;4.27;;
3865;SDS011;1948;53.250;10.412;2022-09-12T17:19:07;5.30;;;4.47;;
3865;SDS011;1948;53.250;10.412;2022-09-12T17:21:40;8.63;;;4.20;;
3865;SDS011;1948;53.250;10.412;2022-09-12T17:24:12;4.23;;;3.83;;
3865;SDS011;1948;53.250;10.412;2022-09-12T17:26:39;4.67;;;4.23;;
3865;SDS011;1948;53.250;10.412;2022-09-12T17:29:10;13.23;;;4.13;;
3865;SDS011;1948;53.250;10.412;2022-09-12T17:31:40;5.20;;;4.90;;
3865;SDS011;1948;53.250;10.412;2022-09-12T17:34:08;4.30;;;4.10;;
3865;SDS011;1948;53.250;10.412;2022-09-12T17:36:39;4.43;;;4.23;;
3865;SDS011;1948;53.250;10.412;2022-09-12T17:39:10;4.57;;;4.20;;
3865;SDS011;1948;53.250;10.412;2022-09-12T17:41:40;3.50;;;3.30;;
3865;SDS011;1948;53.250;10.412;2022-09-12T17:44:09;4.57;;;4.23;;
3865;SDS011;1948;53.250;10.412;2022-09-12T17:46:38;6.17;;;4.50;;
3865;SDS011;1948;53.250;10.412;2022-09-12T17:49:12;26.10;;;5.87;;
3865;SDS011;1948;53.250;10.412;2022-09-12T17:51:41;5.53;;;5.20;;
3865;SDS011;1948;53.250;10.412;2022-09-12T17:54:12;6.33;;;5.80;;
3865;SDS011;1948;53.250;10.412;2022-09-12T17:56:46;8.73;;;5.20;;
3865;SDS011;1948;53.250;10.412;2022-09-12T17:59:17;8.07;;;6.10;;
3865;SDS011;1948;53.250;10.412;2022-09-12T18:01:46;6.07;;;5.63;;
3865;SDS011;1948;53.250;10.412;2022-09-12T18:04:32;4.87;;;4.67;;
3865;SDS011;1948;53.250;10.412;2022-09-12T18:06:59;3.87;;;3.73;;
3865;SDS011;1948;53.250;10.412;2022-09-12T18:09:27;4.00;;;3.90;;
3865;SDS011;1948;53.250;10.412;2022-09-12T18:11:54;4.53;;;3.47;;
3865;SDS011;1948;53.250;10.412;2022-09-12T18:14:21;8.70;;;4.07;;
3865;SDS011;1948;53.250;10.412;2022-09-12T18:16:50;5.80;;;3.80;;
3865;SDS011;1948;53.250;10.412;2022-09-12T18:19:17;4.30;;;4.10;;
3865;SDS011;1948;53.250;10.412;2022-09-12T18:21:44;6.37;;;4.20;;
3865;SDS011;1948;53.250;10.412;2022-09-12T18:24:16;5.03;;;4.17;;
3865;SDS011;1948;53.250;10.412;2022-09-12T18:26:44;4.60;;;4.07;;
3865;SDS011;1948;53.250;10.412;2022-09-12T18:29:13;5.53;;;4.17;;
3865;SDS011;1948;53.250;10.412;2022-09-12T18:31:46;8.33;;;4.97;;
3865;SDS011;1948;53.250;10.412;2022-09-12T18:34:13;4.63;;;4.50;;
3865;SDS011;1948;53.250;10.412;2022-09-12T18:36:48;4.67;;;4.37;;
3865;SDS011;1948;53.250;10.412;2022-09-12T18:39:16;4.93;;;4.13;;
3865;SDS011;1948;53.250;10.412;2022-09-12T18:41:43;4.27;;;4.17;;
3865;SDS011;1948;53.250;10.412;2022-09-12T18:44:12;7.30;;;3.90;;
3865;SDS011;1948;53.250;10.412;2022-09-12T18:46:39;5.10;;;4.70;;
3865;SDS011;1948;53.250;10.412;2022-09-12T18:49:07;5.27;;;4.97;;
3865;SDS011;1948;53.250;10.412;2022-09-12T18:51:35;8.23;;;4.90;;